Time;durP1;ratioP1;P1;durP2;ratioP2;P2;SDS_P1;SDS_P2;PMS_P1;PMS_P2;Temp;Humidity;BMP_temperature;BMP_pressure;BME280_temperature;BME280_humidity;BME280_pressure;Samples;Min_cycle;Max_cycle;Signal;HPM_P1;HPM_P2
2022/05/21 00:33:49;;;;;;;8.85;3.13;;;12.10;91.50;;;;;;4839445;29;20546;-88
2022/05/21 00:36:15;;;;;;;5.75;2.30;;;13.20;92.20;;;;;;4821330;29;20034;-87
2022/05/21 00:38:42;;;;;;;7.47;2.75;;;13.20;92.10;;;;;;4825007;29;20044;-86
2022/05/21 00:41:28;;;;;;;8.18;2.75;;;13.20;92.10;;;;;;4820999;29;20073;-89
2022/05/21 00:43:58;;;;;;;6.85;2.67;;;13.20;91.90;;;;;;4829374;29;20033;-90
2022/05/21 00:46:25;;;;;;;6.78;3.05;;;13.30;92.30;;;;;;4829593;29;20105;-87
2022/05/21 00:49:51;;;;;;;6.20;2.58;;;13.20;92.70;;;;;;4830207;29;20036;-90
2022/05/21 00:52:22;;;;;;;6.53;2.97;;;13.10;92.50;;;;;;4737227;30;20303;-86
2022/05/21 00:54:58;;;;;;;6.25;2.28;;;13.00;92.90;;;;;;4736926;30;20044;-89
2022/05/21 00:57:37;;;;;;;5.95;2.15;;;12.90;92.90;;;;;;4760932;24;20813;-86
2022/05/21 01:00:15;;;;;;;6.47;2.47;;;12.90;93.20;;;;;;4830842;29;20061;-91
2022/05/21 01:02:53;;;;;;;6.88;2.72;;;12.90;93.00;;;;;;4847887;29;20490;-88
2022/05/21 01:05:25;;;;;;;8.25;3.08;;;13.00;92.70;;;;;;4831443;29;20065;-88
2022/05/21 01:34:24;;;;;;;6.43;2.40;;;12.70;93.20;;;;;;4793954;29;20134;-88
2022/05/21 01:36:52;;;;;;;6.60;2.42;;;12.80;93.50;;;;;;4775103;29;20031;-90
2022/05/21 01:39:18;;;;;;;7.63;2.17;;;13.30;94.00;;;;;;4774342;29;20122;-86
2022/05/21 01:41:59;;;;;;;6.95;2.28;;;12.60;94.00;;;;;;4774933;29;20129;-88
2022/05/21 01:44:39;;;;;;;5.40;2.45;;;12.60;94.20;;;;;;4789655;29;20162;-85
2022/05/21 01:47:08;;;;;;;6.75;2.33;;;12.80;93.90;;;;;;4776021;29;20117;-86
2022/05/21 01:50:23;;;;;;;9.18;2.47;;;12.90;94.30;;;;;;4789897;29;20051;-87
2022/05/21 03:18:23;;;;;;;5.15;2.42;;;11.80;95.20;;;;;;5935681;23;20302;-84
2022/05/21 03:20:51;;;;;;;8.50;2.47;;;11.80;95.50;;;;;;4789009;29;20409;-82
2022/05/21 03:23:22;;;;;;;5.90;1.85;;;11.80;95.80;;;;;;4768419;30;20316;-84
2022/05/21 03:26:26;;;;;;;6.78;2.20;;;11.80;95.60;;;;;;4767906;30;20059;-85
2022/05/21 03:29:10;;;;;;;6.93;1.90;;;11.70;95.60;;;;;;4801828;29;20304;-86
2022/05/21 03:31:35;;;;;;;5.70;2.03;;;11.80;95.90;;;;;;4796310;29;20043;-85
2022/05/21 05:36:40;;;;;;;11.43;3.90;;;14.40;92.30;;;;;;4496649;24;20426;-91
2022/05/21 05:39:16;;;;;;;12.90;3.78;;;14.70;91.70;;;;;;4856564;23;20062;-88
2022/05/21 05:41:42;;;;;;;9.60;3.65;;;15.40;92.10;;;;;;4826636;29;20038;-85
2022/05/21 05:44:55;;;;;;;6.43;3.30;;;15.10;91.40;;;;;;4827631;29;20021;-86
2022/05/21 05:50:56;;;;;;;10.20;3.33;;;15.60;91.10;;;;;;4828414;29;20100;-87
2022/05/21 06:03:15;;;;;;;6.97;3.28;;;16.10;88.70;;;;;;4846071;29;20033;-90
2022/05/21 06:06:06;;;;;;;9.60;3.63;;;15.90;87.60;;;;;;4829743;29;20425;-86
2022/05/21 06:08:33;;;;;;;8.35;3.45;;;16.40;87.40;;;;;;4829690;29;20025;-86
2022/05/21 06:11:12;;;;;;;5.47;2.80;;;16.60;87.10;;;;;;4846023;29;20384;-89
2022/05/21 06:13:44;;;;;;;8.15;3.30;;;16.30;86.60;;;;;;4829910;29;20363;-88
2022/05/21 06:16:10;;;;;;;7.50;3.30;;;16.40;86.50;;;;;;4828714;29;20399;-86
2022/05/21 06:18:36;;;;;;;6.28;2.67;;;16.50;85.50;;;;;;4829365;29;20041;-86
2022/05/21 06:21:04;;;;;;;6.45;2.95;;;16.50;85.90;;;;;;4845529;29;20022;-84
2022/05/21 06:23:33;;;;;;;7.18;3.15;;;16.70;86.00;;;;;;4828854;29;20037;-85
2022/05/21 06:26:00;;;;;;;7.20;3.25;;;16.90;85.60;;;;;;4845274;29;20040;-84
2022/05/21 06:28:29;;;;;;;7.75;3.45;;;17.10;84.20;;;;;;4844597;29;20134;-88
2022/05/21 06:31:08;;;;;;;7.22;3.45;;;17.30;82.90;;;;;;4845967;29;20115;-85
2022/05/21 06:33:55;;;;;;;8.00;3.45;;;17.40;82.40;;;;;;4829044;29;20037;-86
2022/05/21 07:07:32;;;;;;;8.40;3.38;;;17.70;76.80;;;;;;4887558;23;20109;-83
2022/05/21 07:10:01;;;;;;;7.68;3.50;;;18.80;76.20;;;;;;4842911;29;20041;-83
2022/05/21 07:12:39;;;;;;;9.02;3.20;;;18.80;76.90;;;;;;4859143;23;20664;-81
2022/05/21 07:18:26;;;;;;;9.85;3.05;;;19.20;74.90;;;;;;4910248;23;20049;-83
2022/05/21 07:20:56;;;;;;;7.10;3.38;;;19.20;76.80;;;;;;4829016;29;20048;-81
2022/05/21 07:23:25;;;;;;;7.82;3.72;;;19.60;73.60;;;;;;4911348;23;20004;-86
2022/05/21 07:28:44;;;;;;;10.13;4.10;;;19.70;73.60;;;;;;4849599;29;20125;-84
2022/05/21 07:31:23;;;;;;;8.80;3.45;;;19.60;75.20;;;;;;4833024;29;20756;-81
2022/05/21 07:33:52;;;;;;;9.38;3.53;;;20.20;74.00;;;;;;4848675;29;20094;-84
2022/05/21 07:36:18;;;;;;;9.07;3.70;;;20.10;74.00;;;;;;4849462;29;20093;-87
2022/05/21 07:38:47;;;;;;;14.00;4.07;;;20.00;73.40;;;;;;4833341;29;20033;-88
2022/05/21 07:41:19;;;;;;;7.75;3.40;;;19.90;72.20;;;;;;4849017;29;20018;-86
2022/05/21 07:43:51;;;;;;;7.40;2.90;;;20.20;70.60;;;;;;4833212;29;20060;-86
2022/05/21 07:46:16;;;;;;;8.38;3.28;;;20.30;70.70;;;;;;4848990;29;20017;-85
2022/05/21 07:48:42;;;;;;;9.20;4.00;;;20.50;71.10;;;;;;4849478;29;20040;-83
2022/05/21 07:51:08;;;;;;;8.40;4.22;;;20.70;70.10;;;;;;4835828;24;20455;-84
2022/05/21 07:53:37;;;;;;;7.93;4.10;;;20.80;68.00;;;;;;4814571;29;20034;-83
2022/05/21 07:56:03;;;;;;;11.05;3.38;;;20.80;67.70;;;;;;4814714;29;20550;-81
2022/05/21 07:58:31;;;;;;;7.22;3.35;;;21.10;67.20;;;;;;4813680;29;20045;-80
2022/05/21 08:00:58;;;;;;;11.10;3.35;;;21.40;66.70;;;;;;4936623;24;20144;-82
2022/05/21 08:03:24;;;;;;;12.00;2.92;;;21.40;65.70;;;;;;4848731;29;20057;-83
2022/05/21 08:05:51;;;;;;;11.98;3.45;;;21.20;65.30;;;;;;4831893;29;20026;-84
2022/05/21 08:08:18;;;;;;;10.85;4.25;;;21.50;65.10;;;;;;4832324;29;20030;-81
2022/05/21 08:10:51;;;;;;;6.75;3.45;;;21.80;65.00;;;;;;4847973;29;20029;-81
2022/05/21 08:13:17;;;;;;;8.95;3.55;;;22.10;64.60;;;;;;4847740;29;20545;-79
2022/05/21 08:15:44;;;;;;;8.82;3.55;;;22.10;64.00;;;;;;4831767;29;20442;-80
2022/05/21 08:18:19;;;;;;;5.90;2.65;;;22.20;64.00;;;;;;4830770;29;20036;-82
2022/05/21 08:20:44;;;;;;;7.00;3.10;;;22.30;62.60;;;;;;4848213;29;20060;-86
2022/05/21 08:28:46;;;;;;;7.43;3.58;;;22.90;62.30;;;;;;4848387;29;20125;-83
2022/05/21 08:31:12;;;;;;;6.93;3.03;;;23.00;61.20;;;;;;4847610;29;20029;-81
2022/05/21 08:33:38;;;;;;;10.93;3.08;;;23.10;60.00;;;;;;4848102;29;20690;-84
2022/05/21 08:36:24;;;;;;;6.55;3.10;;;23.40;59.30;;;;;;4831834;29;20553;-86
2022/05/21 08:38:52;;;;;;;5.88;2.90;;;23.40;56.60;;;;;;4830993;29;20041;-88
2022/05/21 08:41:27;;;;;;;7.18;3.00;;;23.50;54.80;;;;;;4848046;29;20057;-87
2022/05/21 08:44:01;;;;;;;6.90;2.80;;;23.70;53.90;;;;;;4855528;23;20057;-85
2022/05/21 08:46:38;;;;;;;9.25;2.88;;;23.80;54.80;;;;;;4831071;29;20057;-87
2022/05/21 08:49:39;;;;;;;6.65;3.00;;;24.00;54.40;;;;;;4829666;29;20086;-83
2022/05/21 08:54:43;;;;;;;5.72;2.42;;;24.30;50.90;;;;;;4931914;23;20070;-82
2022/05/21 08:57:26;;;;;;;5.90;2.30;;;24.30;51.00;;;;;;4835033;29;20049;-83
2022/05/21 09:03:42;;;;;;;6.97;2.85;;;24.00;49.00;;;;;;4756210;30;20543;-84
2022/05/21 09:06:35;;;;;;;7.63;2.30;;;24.70;50.40;;;;;;4755674;30;20130;-88
2022/05/21 09:11:43;;;;;;;4.53;2.00;;;25.10;47.00;;;;;;4860272;23;20057;-92
2022/05/21 10:27:42;;;;;;;9.10;3.20;;;27.20;51.30;;;;;;4755720;30;20050;-85
2022/05/21 10:31:05;;;;;;;6.05;2.65;;;27.40;50.80;;;;;;4755799;30;20063;-84
2022/05/21 10:34:03;;;;;;;6.35;3.28;;;27.50;50.40;;;;;;4717436;30;20424;-83
2022/05/21 10:37:14;;;;;;;5.97;2.50;;;27.90;50.20;;;;;;4710214;30;20044;-82
2022/05/21 10:40:20;;;;;;;7.07;3.30;;;28.70;50.50;;;;;;4768811;30;20039;-83
2022/05/21 10:43:11;;;;;;;6.00;2.97;;;28.10;50.30;;;;;;4755496;30;20032;-86
2022/05/21 10:46:19;;;;;;;5.75;2.83;;;29.50;50.50;;;;;;4755857;30;20611;-84
2022/05/21 10:52:56;;;;;;;6.85;2.70;;;28.40;49.40;;;;;;4751914;30;20239;-85
2022/05/21 10:59:10;;;;;;;6.85;2.92;;;28.70;49.70;;;;;;4743598;30;20113;-83
2022/05/21 11:02:00;;;;;;;7.35;2.92;;;30.30;50.50;;;;;;4737680;30;20116;-88
2022/05/21 11:08:24;;;;;;;7.05;2.90;;;29.50;47.70;;;;;;4668930;30;20216;-85
2022/05/21 11:11:16;;;;;;;5.60;2.85;;;30.00;47.50;;;;;;4668234;30;20046;-83
2022/05/21 11:20:37;;;;;;;7.13;2.65;;;30.00;47.80;;;;;;4641719;30;20116;-92
2022/05/21 11:23:30;;;;;;;6.28;3.03;;;31.60;48.80;;;;;;4813516;24;20061;-91
2022/05/21 11:26:39;;;;;;;6.47;3.42;;;30.30;47.90;;;;;;4833164;29;20037;-92
2022/05/21 11:29:26;;;;;;;9.98;3.53;;;30.60;47.60;;;;;;4850079;29;20036;-91
2022/05/21 11:37:47;;;;;;;9.93;3.30;;;31.10;47.30;;;;;;4775524;29;20055;-90
2022/05/21 11:40:50;;;;;;;8.20;2.90;;;30.70;48.60;;;;;;4817448;23;20057;-84
2022/05/21 11:43:57;;;;;;;7.20;3.80;;;30.60;47.80;;;;;;4834500;29;20034;-90
2022/05/21 11:46:41;;;;;;;7.07;3.13;;;29.70;47.00;;;;;;4833937;29;20078;-86
2022/05/21 11:49:44;;;;;;;7.45;3.35;;;31.10;48.10;;;;;;4834175;29;20017;-90
2022/05/21 11:52:25;;;;;;;;;;;31.20;47.70;;;;;;4834133;29;20523;-91
2022/05/21 11:54:51;;;;;;;7.82;3.30;;;31.20;47.30;;;;;;4833404;29;19908;-90
2022/05/21 11:57:51;;;;;;;7.28;3.50;;;31.70;47.50;;;;;;4833042;29;20395;-87
2022/05/21 12:00:24;;;;;;;6.68;2.80;;;31.70;47.40;;;;;;4833162;29;20033;-91
2022/05/21 12:03:16;;;;;;;6.07;3.45;;;32.20;47.50;;;;;;4849177;29;20140;-89
2022/05/21 12:05:56;;;;;;;7.70;3.20;;;32.60;46.60;;;;;;4852202;29;20045;-90
2022/05/21 12:11:32;;;;;;;7.20;3.53;;;32.60;46.50;;;;;;4849032;29;20052;-88
2022/05/21 12:14:48;;;;;;;8.30;3.50;;;31.70;45.10;;;;;;4849383;29;20135;-89
2022/05/21 12:17:50;;;;;;;6.10;3.50;;;31.70;45.00;;;;;;4755213;30;20371;-83
2022/05/21 12:31:09;;;;;;;8.70;3.20;;;35.10;44.80;;;;;;4686522;30;20123;-84
2022/05/21 12:36:30;;;;;;;5.50;3.17;;;35.00;43.00;;;;;;5021463;23;20073;-82
2022/05/21 12:44:50;;;;;;;7.03;3.83;;;35.10;43.80;;;;;;4850636;29;20040;-83
2022/05/21 13:29:37;;;;;;;10.07;4.63;;;35.40;44.50;;;;;;4855459;23;20593;-85
2022/05/21 13:32:31;;;;;;;7.65;4.00;;;34.90;44.80;;;;;;4838057;23;20045;-85
2022/05/21 14:02:10;;;;;;;6.70;3.70;;;34.90;44.20;;;;;;5499970;23;20694;-94
2022/05/21 14:04:39;;;;;;;6.55;3.63;;;35.40;43.20;;;;;;4823530;24;20080;-84
2022/05/21 14:07:17;;;;;;;8.45;3.75;;;35.70;43.00;;;;;;4807337;29;20044;-85
2022/05/21 14:09:47;;;;;;;7.95;3.90;;;36.00;43.30;;;;;;4820321;29;20097;-92
2022/05/21 14:25:44;;;;;;;5.53;2.75;;;36.30;40.50;;;;;;4868705;23;20073;-87
2022/05/21 14:28:16;;;;;;;6.13;2.92;;;36.90;40.60;;;;;;4854793;29;20025;-83
2022/05/21 14:31:19;;;;;;;5.68;2.92;;;37.40;40.60;;;;;;4839409;29;20065;-83
2022/05/21 14:34:22;;;;;;;6.32;2.70;;;34.60;37.20;;;;;;4837538;29;20117;-83
2022/05/21 14:57:44;;;;;;;6.85;2.60;;;42.50;39.60;;;;;;4857890;29;20048;-88
2022/05/21 15:11:27;;;;;;;6.07;2.63;;;40.10;35.60;;;;;;4945453;23;20058;-95
2022/05/21 15:20:30;;;;;;;6.05;2.47;;;37.10;32.90;;;;;;4859852;23;20065;-85
2022/05/21 15:25:39;;;;;;;5.47;2.90;;;40.90;35.10;;;;;;5235287;23;20100;-91
2022/05/21 15:31:08;;;;;;;4.75;2.30;;;40.70;34.70;;;;;;4836603;29;19965;-85
2022/05/21 15:34:18;;;;;;;5.18;2.30;;;41.00;34.50;;;;;;4874931;24;20058;-86
2022/05/21 15:37:32;;;;;;;6.03;2.30;;;42.10;36.20;;;;;;4816253;29;20026;-88
2022/05/21 15:46:06;;;;;;;7.10;2.97;;;37.50;35.50;;;;;;4794224;29;20134;-86
2022/05/21 15:54:29;;;;;;;6.03;2.95;;;39.40;36.90;;;;;;4885759;23;20049;-93
2022/05/21 15:57:11;;;;;;;4.55;2.33;;;39.10;39.00;;;;;;4851631;29;20033;-93
2022/05/21 16:05:59;;;;;;;4.53;2.60;;;38.90;41.00;;;;;;4852661;29;20076;-93
2022/05/21 16:08:25;;;;;;;5.72;2.58;;;38.60;42.10;;;;;;4858785;23;20057;-94
2022/05/21 16:34:35;;;;;;;7.72;3.97;;;32.00;39.20;;;;;;4855812;23;20307;-86
2022/05/21 16:37:03;;;;;;;5.82;2.70;;;34.80;41.90;;;;;;4832149;29;20060;-87
2022/05/21 16:39:29;;;;;;;7.38;3.30;;;34.90;41.30;;;;;;4847904;29;20759;-89
2022/05/21 16:42:04;;;;;;;9.30;2.70;;;34.60;41.40;;;;;;4848786;29;20022;-83
2022/05/21 16:44:36;;;;;;;5.88;2.70;;;33.90;42.20;;;;;;4833481;29;20095;-85
2022/05/21 16:47:02;;;;;;;9.32;4.75;;;33.30;42.90;;;;;;4841805;29;20033;-88
2022/05/21 16:49:37;;;;;;;14.73;6.18;;;33.10;44.00;;;;;;4848045;23;20025;-86
2022/05/21 16:57:25;;;;;;;6.32;2.97;;;32.70;45.40;;;;;;4937293;23;20069;-82
2022/05/21 17:00:00;;;;;;;6.82;2.47;;;31.90;45.90;;;;;;4833891;29;20022;-84
2022/05/21 17:03:03;;;;;;;8.23;3.25;;;31.20;46.50;;;;;;4849806;29;20033;-87
2022/05/21 17:05:32;;;;;;;5.50;2.10;;;31.00;45.70;;;;;;4833078;29;20057;-88
2022/05/21 17:24:12;;;;;;;6.13;2.70;;;28.50;48.90;;;;;;5446813;23;20054;-87
2022/05/21 17:26:50;;;;;;;8.18;3.00;;;28.30;49.70;;;;;;4835677;29;20026;-94
2022/05/21 17:32:25;;;;;;;6.18;2.55;;;27.70;51.80;;;;;;4831229;29;20254;-86
2022/05/21 17:34:59;;;;;;;6.40;2.75;;;23.90;51.20;;;;;;4830625;29;20030;-96
2022/05/21 17:37:28;;;;;;;10.07;5.07;;;27.50;52.70;;;;;;4829664;29;20053;-94
2022/05/21 17:40:03;;;;;;;10.90;5.25;;;27.30;52.50;;;;;;4813087;29;20034;-90
2022/05/21 17:45:56;;;;;;;5.78;2.40;;;26.80;53.80;;;;;;4827725;29;20708;-86
2022/05/21 17:48:25;;;;;;;4.85;2.42;;;26.50;53.70;;;;;;4812659;29;20430;-86
2022/05/21 17:51:11;;;;;;;11.65;3.95;;;24.90;52.50;;;;;;4829069;29;20147;-91
2022/05/21 20:09:06;;;;;;;8.05;3.20;;;20.40;89.80;;;;;;5923639;23;20032;31
2022/05/21 20:11:41;;;;;;;6.68;2.58;;;20.40;90.10;;;;;;4853350;29;20054;-86
2022/05/21 20:14:23;;;;;;;6.43;2.55;;;20.50;91.00;;;;;;4840446;29;20649;-86
2022/05/21 20:16:49;;;;;;;10.02;2.80;;;21.10;91.30;;;;;;4824216;29;20026;-87
2022/05/21 20:21:46;;;;;;;8.60;2.75;;;20.30;90.80;;;;;;4864009;29;20053;-86
2022/05/21 20:24:40;;;;;;;8.10;2.92;;;20.20;91.00;;;;;;4866819;29;20420;-86
2022/05/21 20:27:15;;;;;;;;;;;20.50;91.30;;;;;;4861827;29;20009;-86
2022/05/21 20:32:52;;;;;;;6.95;2.97;;;20.10;91.20;;;;;;4906883;23;20057;-86
2022/05/21 20:36:10;;;;;;;6.03;3.30;;;20.50;91.30;;;;;;4851194;29;20059;-86
2022/05/21 20:41:49;;;;;;;8.25;3.35;;;20.00;91.30;;;;;;4914347;23;20262;-86
2022/05/21 20:44:21;;;;;;;8.93;3.43;;;20.90;91.80;;;;;;4840618;29;20093;-89
2022/05/21 20:46:46;;;;;;;8.95;3.92;;;19.90;92.00;;;;;;4843767;24;20064;-85
2022/05/21 20:52:05;;;;;;;8.98;3.35;;;19.80;92.00;;;;;;4834119;29;20084;-86
2022/05/21 20:54:37;;;;;;;;;;;19.70;92.10;;;;;;4822110;29;20618;-89
2022/05/21 20:57:13;;;;;;;10.50;3.95;;;21.40;92.60;;;;;;4829766;29;19972;-88
2022/05/21 20:59:51;;;;;;;7.60;3.30;;;20.00;92.50;;;;;;4795220;29;20034;-91
2022/05/21 21:02:24;;;;;;;7.55;3.80;;;19.50;92.70;;;;;;4794956;29;20035;-87
2022/05/21 21:04:50;;;;;;;7.18;3.38;;;19.50;93.20;;;;;;4794911;29;20022;-87
2022/05/21 21:07:23;;;;;;;10.00;4.05;;;19.50;94.00;;;;;;4795120;29;20034;-90
2022/05/21 21:09:55;;;;;;;8.35;3.40;;;19.40;94.50;;;;;;4795634;29;20283;-92
2022/05/21 21:12:21;;;;;;;8.70;3.42;;;19.10;93.80;;;;;;4795800;29;20079;-86
2022/05/21 21:14:47;;;;;;;10.18;3.45;;;19.40;93.20;;;;;;4795715;29;20022;-90
2022/05/21 21:17:26;;;;;;;7.65;3.35;;;19.20;93.50;;;;;;4797592;29;20050;-93
2022/05/21 21:20:01;;;;;;;6.45;2.90;;;19.60;93.70;;;;;;5109030;23;20140;-87
2022/05/21 21:22:35;;;;;;;7.90;3.03;;;19.10;93.50;;;;;;4838658;23;20046;-87
2022/05/21 21:27:29;;;;;;;10.60;3.03;;;;;;;;;;4853244;23;20061;-88
2022/05/21 21:29:56;;;;;;;7.50;3.25;;;;;;;;;;4855990;24;20149;-88
2022/05/21 21:32:24;;;;;;;7.20;3.10;;;19.10;93.70;;;;;;4875227;29;20116;-87
2022/05/21 21:34:52;;;;;;;7.28;2.83;;;;;;;;;;4860291;29;20029;-91
2022/05/21 21:37:18;;;;;;;5.45;2.70;;;19.00;94.10;;;;;;4860712;29;20105;-91
2022/05/21 21:39:47;;;;;;;7.40;3.72;;;19.00;94.10;;;;;;4854935;29;20508;-89
2022/05/21 21:42:13;;;;;;;8.20;3.55;;;18.90;94.70;;;;;;4853728;29;20108;-90
2022/05/21 21:44:52;;;;;;;8.48;3.60;;;19.00;95.10;;;;;;4852471;29;20529;-89
2022/05/21 21:47:18;;;;;;;6.90;3.10;;;;;;;;;;4868853;29;20313;-87
2022/05/21 21:49:47;;;;;;;6.85;3.40;;;18.90;94.20;;;;;;4852456;29;20307;-89
2022/05/21 21:52:12;;;;;;;7.35;3.30;;;18.90;94.80;;;;;;4853522;29;20121;-89
2022/05/21 21:54:38;;;;;;;9.43;3.30;;;;;;;;;;4853210;29;20749;-89
2022/05/21 21:57:16;;;;;;;10.43;3.10;;;18.90;94.30;;;;;;4849306;29;20036;-92
2022/05/21 22:02:27;;;;;;;8.00;3.20;;;17.90;94.80;;;;;;4831703;29;20643;-91
2022/05/21 22:04:55;;;;;;;6.28;2.97;;;;;;;;;;4832905;29;20312;-95
2022/05/21 22:07:33;;;;;;;8.60;3.65;;;18.70;94.90;;;;;;4832157;29;20034;-95
2022/05/21 22:10:32;;;;;;;8.40;3.00;;;19.00;96.10;;;;;;4849409;29;20034;-87
2022/05/21 22:30:11;;;;;;;8.60;3.35;;;18.70;94.90;;;;;;4853886;29;20064;-88
2022/05/21 23:10:52;;;;;;;6.05;2.92;;;18.60;95.40;;;;;;5722585;23;20046;-94
2022/05/21 23:13:18;;;;;;;7.15;2.97;;;;;;;;;;4826955;29;20054;-87
2022/05/21 23:18:33;;;;;;;6.00;2.90;;;18.50;96.00;;;;;;4834259;29;20413;-94
2022/05/21 23:21:13;;;;;;;7.97;3.45;;;18.40;96.20;;;;;;4834135;29;20026;-95
2022/05/21 23:23:39;;;;;;;7.40;3.38;;;18.40;96.00;;;;;;4817242;29;20033;-93
2022/05/21 23:26:16;;;;;;;7.45;2.92;;;18.30;96.50;;;;;;4816511;29;20018;-92
2022/05/21 23:28:41;;;;;;;9.30;3.20;;;18.30;96.50;;;;;;4818855;29;20121;-90
2022/05/21 23:31:07;;;;;;;7.03;2.83;;;18.30;96.80;;;;;;4815967;29;20488;-90
2022/05/21 23:33:33;;;;;;;8.80;3.20;;;18.20;96.80;;;;;;4824392;29;20038;-89
2022/05/21 23:36:07;;;;;;;11.75;3.85;;;18.20;96.80;;;;;;4818186;29;20033;-95
2022/05/21 23:38:33;;;;;;;6.95;3.72;;;18.10;97.30;;;;;;4816346;29;20030;-91
2022/05/21 23:58:22;;;;;;;7.40;3.10;;;18.00;97.60;;;;;;4834171;29;20174;-92
